Time;durP1;ratioP1;P1;durP2;ratioP2;P2;SDS_P1;SDS_P2;PMS_P1;PMS_P2;Temp;Humidity;BMP_temperature;BMP_pressure;BME280_temperature;BME280_humidity;BME280_pressure;Samples;Min_cycle;Max_cycle;Signal;HPM_P1;HPM_P2
2021/08/15 00:00:50;;;;;;;11.95;10.52;;;;;;;21.02;100.00;100490.28;5095000;28;19965;-65
2021/08/15 00:03:34;;;;;;;13.93;10.93;;;;;;;21.02;100.00;100492.19;5095887;28;20082;-65
2021/08/15 00:06:18;;;;;;;15.10;11.75;;;;;;;21.02;100.00;100493.00;5094809;28;20055;-65
2021/08/15 00:09:02;;;;;;;;;;;;;;;21.01;100.00;100493.22;5109652;28;20046;-65
2021/08/15 00:11:47;;;;;;;13.77;10.67;;;;;;;20.96;100.00;100496.53;5095795;28;19977;-65
2021/08/15 00:14:31;;;;;;;12.90;10.23;;;;;;;20.91;100.00;100490.06;5095380;28;20126;-65
2021/08/15 00:17:15;;;;;;;14.07;10.45;;;;;;;20.86;100.00;100492.53;5094665;28;20051;-65
2021/08/15 00:19:59;;;;;;;12.43;10.25;;;;;;;20.83;100.00;100485.63;5095598;28;20047;-65
2021/08/15 00:22:43;;;;;;;14.52;10.23;;;;;;;20.77;100.00;100486.47;5095393;28;20059;-65
2021/08/15 00:25:27;;;;;;;14.35;10.18;;;;;;;20.72;100.00;100488.94;5094047;28;20050;-65
2021/08/15 00:28:11;;;;;;;12.25;9.90;;;;;;;20.65;100.00;100479.97;5095042;28;20055;-65
2021/08/15 00:30:55;;;;;;;13.52;10.45;;;;;;;20.59;100.00;100485.34;5095144;28;20051;-65
2021/08/15 00:33:39;;;;;;;16.38;11.25;;;;;;;20.55;100.00;100482.22;5094985;28;20145;-65
2021/08/15 00:36:23;;;;;;;13.30;11.40;;;;;;;20.53;100.00;100483.47;5095290;28;20058;-65
2021/08/15 00:39:07;;;;;;;14.80;11.20;;;;;;;20.52;100.00;100484.50;5093920;28;20488;-65
2021/08/15 00:41:50;;;;;;;13.35;10.82;;;;;;;20.52;100.00;100482.59;5095154;28;20097;-64
2021/08/15 00:44:34;;;;;;;12.68;10.52;;;;;;;20.50;100.00;100483.88;5094880;28;20047;-65
2021/08/15 00:47:18;;;;;;;11.27;10.07;;;;;;;20.45;100.00;100476.34;5093817;28;20043;-65
2021/08/15 00:50:04;;;;;;;15.48;11.45;;;;;;;20.45;100.00;100476.34;5094050;28;20051;-65
2021/08/15 00:52:48;;;;;;;14.35;10.40;;;;;;;20.44;100.00;100473.84;5094020;28;20085;-65
2021/08/15 00:55:33;;;;;;;13.98;10.77;;;;;;;20.43;100.00;100480.28;5095048;28;20415;-64
2021/08/15 00:58:18;;;;;;;14.02;10.63;;;;;;;20.36;100.00;100468.59;5094876;28;20525;-65
2021/08/15 01:01:06;;;;;;;13.18;10.30;;;;;;;20.32;100.00;100470.84;5094849;28;20054;-65
2021/08/15 01:03:50;;;;;;;14.80;10.88;;;;;;;20.28;100.00;100469.59;5093509;28;20051;-65
2021/08/15 01:06:34;;;;;;;13.25;10.55;;;;;;;20.25;100.00;100475.44;5094739;28;20046;-65
2021/08/15 01:09:20;;;;;;;12.10;10.02;;;;;;;20.22;100.00;100466.88;5094624;28;20507;-65
2021/08/15 01:12:05;;;;;;;12.38;10.30;;;;;;;20.20;100.00;100460.81;5093634;28;20090;-65
2021/08/15 01:14:49;;;;;;;13.73;10.98;;;;;;;20.19;100.00;100465.38;5093168;28;20527;-65
2021/08/15 01:17:33;;;;;;;11.05;9.77;;;;;;;20.18;100.00;100462.88;5093529;28;20164;-64
2021/08/15 01:20:17;;;;;;;15.00;9.35;;;;;;;20.16;100.00;100464.94;5093450;28;20550;-65
2021/08/15 01:23:01;;;;;;;16.10;10.43;;;;;;;20.15;100.00;100463.28;5094346;28;20090;-64
2021/08/15 01:25:44;;;;;;;11.93;10.05;;;;;;;20.13;100.00;100459.94;5094354;28;20074;-65
2021/08/15 01:28:29;;;;;;;11.93;10.15;;;;;;;20.11;100.00;100464.72;5094168;28;20511;-65
2021/08/15 01:31:13;;;;;;;12.98;10.52;;;;;;;20.10;100.00;100465.78;5094266;28;20082;-65
2021/08/15 01:33:57;;;;;;;13.32;10.77;;;;;;;20.10;100.00;100468.47;5094119;28;20082;-65
2021/08/15 01:36:41;;;;;;;13.77;11.40;;;;;;;20.10;100.00;100471.19;5093468;28;20055;-64
2021/08/15 01:39:25;;;;;;;;;;;;;;;20.09;100.00;100469.53;5093798;28;20075;-65
2021/08/15 01:42:09;;;;;;;14.05;10.40;;;;;;;20.14;100.00;100476.00;5078729;28;20015;-65
2021/08/15 01:44:53;;;;;;;16.10;10.43;;;;;;;20.15;100.00;100472.25;5093727;28;20462;-63
2021/08/15 01:47:37;;;;;;;13.32;9.55;;;;;;;20.23;100.00;100471.25;5092731;28;20478;-65
2021/08/15 01:50:21;;;;;;;11.13;9.95;;;;;;;20.32;100.00;100464.63;5092937;28;20050;-65
2021/08/15 01:53:10;;;;;;;13.75;10.40;;;;;;;20.39;100.00;100465.47;5078604;28;20424;-65
2021/08/15 01:55:54;;;;;;;12.38;10.50;;;;;;;20.45;100.00;100461.97;5078629;28;20051;-65
2021/08/15 01:58:38;;;;;;;14.65;10.85;;;;;;;20.48;100.00;100469.66;5092498;28;20047;-65
2021/08/15 02:01:21;;;;;;;17.40;10.70;;;;;;;20.55;100.00;100470.53;5092478;28;20046;-65
2021/08/15 02:04:05;;;;;;;;;;;;;;;20.53;100.00;100465.31;5092884;28;20135;-66
2021/08/15 02:06:49;;;;;;;15.05;9.73;;;;;;;20.54;99.64;100471.56;5093467;28;19965;-65
2021/08/15 02:09:34;;;;;;;14.15;9.90;;;;;;;20.53;99.69;100473.44;5092397;28;20566;-63
2021/08/15 02:12:18;;;;;;;11.60;8.82;;;;;;;20.50;98.89;100463.03;5093344;28;20181;-65
2021/08/15 02:15:02;;;;;;;14.48;9.68;;;;;;;20.49;99.53;100465.91;5093565;28;20047;-65
2021/08/15 02:17:46;;;;;;;15.88;9.93;;;;;;;20.46;98.58;100466.34;5093585;28;20558;-65
2021/08/15 02:20:33;;;;;;;12.90;9.40;;;;;;;20.47;97.84;100474.28;5093762;28;20050;-65
2021/08/15 02:23:17;;;;;;;14.82;8.85;;;;;;;20.46;99.61;100460.91;5092936;28;20530;-64
2021/08/15 02:26:01;;;;;;;15.30;9.00;;;;;;;20.45;100.00;100459.25;5078251;28;20105;-65
2021/08/15 02:28:45;;;;;;;13.35;8.68;;;;;;;20.41;100.00;100458.81;5093419;28;20055;-65
2021/08/15 02:31:29;;;;;;;10.13;8.57;;;;;;;20.35;100.00;100458.78;5092440;28;20047;-65
2021/08/15 02:34:13;;;;;;;15.02;9.68;;;;;;;20.25;100.00;100458.34;5093083;28;20413;-65
2021/08/15 02:36:57;;;;;;;9.93;8.32;;;;;;;20.17;100.00;100458.50;5092399;28;20051;-65
2021/08/15 02:39:41;;;;;;;13.25;7.90;;;;;;;20.09;100.00;100455.97;5092197;28;20047;-65
2021/08/15 02:42:27;;;;;;;13.77;8.48;;;;;;;20.01;100.00;100450.69;5078006;28;20528;-65
2021/08/15 02:45:14;;;;;;;9.80;8.68;;;;;;;19.93;100.00;100451.72;5092954;28;20093;-65
2021/08/15 02:47:58;;;;;;;12.45;8.85;;;;;;;19.85;100.00;100445.59;5092142;28;20050;-64
2021/08/15 02:50:42;;;;;;;10.07;8.30;;;;;;;19.76;100.00;100442.22;5093257;28;20097;-65
2021/08/15 02:53:26;;;;;;;10.00;7.80;;;;;;;19.69;100.00;100444.06;5082143;28;20042;-65
2021/08/15 02:56:10;;;;;;;10.70;8.43;;;;;;;19.64;100.00;100437.56;5096987;28;20062;-64
2021/08/15 02:58:54;;;;;;;10.75;7.88;;;;;;;19.62;100.00;100429.63;5097459;28;20058;-64
2021/08/15 03:01:38;;;;;;;;;;;;;;;19.61;100.00;100443.38;5096510;28;20061;-65
2021/08/15 03:04:22;;;;;;;15.03;8.93;;;;;;;19.64;100.00;100438.41;5096012;28;19971;-63
2021/08/15 03:07:06;;;;;;;13.20;7.78;;;;;;;19.65;100.00;100433.81;5095735;28;20079;-65
2021/08/15 03:09:50;;;;;;;11.80;8.32;;;;;;;19.65;100.00;100433.81;5096009;28;20105;-65
2021/08/15 03:12:35;;;;;;;16.73;9.07;;;;;;;19.65;100.00;100423.00;5096674;28;20101;-64
2021/08/15 03:15:19;;;;;;;14.43;9.50;;;;;;;19.64;100.00;100419.47;5096469;28;20528;-65
2021/08/15 03:18:03;;;;;;;11.95;7.80;;;;;;;19.63;100.00;100415.09;5081738;28;20511;-64
2021/08/15 03:20:47;;;;;;;10.80;8.77;;;;;;;19.62;100.00;100420.69;5095738;28;20159;-64
2021/08/15 03:23:31;;;;;;;;;;;;;;;19.61;100.00;100419.03;5095619;28;20150;-65
2021/08/15 03:26:15;;;;;;;13.20;7.93;;;;;;;19.55;100.00;100417.09;5098318;28;19993;-65
2021/08/15 03:28:59;;;;;;;12.40;7.63;;;;;;;19.47;100.00;100419.97;5095338;28;20062;-65
2021/08/15 03:31:44;;;;;;;9.25;7.43;;;;;;;19.40;100.00;100419.09;5096375;28;20566;-65
2021/08/15 03:34:28;;;;;;;14.55;7.95;;;;;;;19.33;100.00;100418.22;5095258;28;20046;-65
2021/08/15 03:37:12;;;;;;;12.15;7.22;;;;;;;19.28;100.00;100421.50;5095507;28;20558;-65
2021/08/15 03:39:56;;;;;;;12.75;8.02;;;;;;;19.22;100.00;100416.91;5096163;28;20055;-64
2021/08/15 03:42:40;;;;;;;;;;;;;;;19.20;100.00;100426.22;5095646;28;20185;-65
2021/08/15 03:45:24;;;;;;;9.93;7.70;;;;;;;19.15;100.00;100424.06;5096033;28;20015;-65
2021/08/15 03:48:08;;;;;;;10.27;7.78;;;;;;;19.10;100.00;100423.81;5094998;28;20263;-64
2021/08/15 03:50:52;;;;;;;11.50;8.07;;;;;;;19.10;100.00;100422.97;5095303;28;20127;-64
2021/08/15 03:53:36;;;;;;;11.40;7.45;;;;;;;19.05;100.00;100415.47;5080746;28;20044;-65
2021/08/15 03:56:20;;;;;;;9.38;7.13;;;;;;;19.04;100.00;100421.03;5096135;28;20455;-65
2021/08/15 03:59:03;;;;;;;11.80;7.32;;;;;;;19.01;100.00;100419.59;5096259;28;20054;-64
2021/08/15 04:01:48;;;;;;;9.90;7.57;;;;;;;18.96;100.00;100427.44;5095010;28;20186;-65
2021/08/15 04:04:31;;;;;;;10.73;8.02;;;;;;;18.91;100.00;100427.19;5093840;28;20508;-65
2021/08/15 04:07:15;;;;;;;14.18;7.30;;;;;;;18.88;100.00;100419.44;5080575;28;20104;-63
2021/08/15 04:10:00;;;;;;;13.65;8.38;;;;;;;18.89;100.00;100425.69;5095834;28;20475;-65
2021/08/15 04:12:44;;;;;;;9.32;7.45;;;;;;;18.90;100.00;100427.38;5095518;28;20047;-65
2021/08/15 04:15:28;;;;;;;12.52;7.30;;;;;;;18.95;100.00;100431.16;5094401;28;20047;-65
2021/08/15 04:18:12;;;;;;;15.15;7.35;;;;;;;19.03;100.00;100438.28;5094712;28;20460;-65
2021/08/15 04:20:56;;;;;;;13.75;7.40;;;;;;;19.10;100.00;100444.59;5095917;28;20455;-65
2021/08/15 04:23:39;;;;;;;14.82;6.95;;;;;;;19.21;100.00;100447.63;5095257;28;20130;-65
2021/08/15 04:26:24;;;;;;;11.20;7.07;;;;;;;19.31;100.00;100447.31;5095258;28;20161;-65
2021/08/15 04:29:10;;;;;;;11.07;7.40;;;;;;;19.41;100.00;100448.63;5094467;28;20047;-65
2021/08/15 04:31:54;;;;;;;9.68;6.72;;;;;;;19.50;100.00;100446.63;5095450;28;20051;-64
2021/08/15 04:34:38;;;;;;;10.25;6.95;;;;;;;19.56;100.00;100435.00;5094000;28;20089;-65
2021/08/15 04:37:22;;;;;;;13.07;7.75;;;;;;;19.58;100.00;100432.97;5095063;28;20127;-65
2021/08/15 04:40:06;;;;;;;10.95;7.20;;;;;;;19.61;100.00;100435.25;5095010;28;20054;-65
2021/08/15 04:42:50;;;;;;;10.73;6.95;;;;;;;19.62;100.00;100434.22;5094823;28;20568;-64
2021/08/15 04:45:35;;;;;;;9.43;7.00;;;;;;;19.63;100.00;100430.50;5095080;28;20100;-64
2021/08/15 04:48:19;;;;;;;9.35;7.15;;;;;;;19.63;100.00;100425.06;5094770;28;20519;-65
2021/08/15 04:51:03;;;;;;;11.32;8.27;;;;;;;19.63;100.00;100430.50;5093963;28;20134;-65
2021/08/15 04:53:47;;;;;;;15.57;8.32;;;;;;;19.63;100.00;100436.75;5093948;28;20510;-63
2021/08/15 04:56:31;;;;;;;13.88;8.95;;;;;;;19.67;100.00;100432.59;5094953;28;20408;-65
2021/08/15 04:59:15;;;;;;;16.98;8.90;;;;;;;19.74;99.30;100436.19;5093570;28;20128;-65
2021/08/15 05:02:01;;;;;;;9.95;7.20;;;;;;;19.81;100.00;100437.03;5094553;28;20130;-65
2021/08/15 05:04:45;;;;;;;9.43;6.82;;;;;;;19.90;100.00;100441.25;5094608;28;20459;-64
2021/08/15 05:07:29;;;;;;;10.57;7.32;;;;;;;19.98;99.23;100433.00;5093476;28;20416;-64
2021/08/15 05:10:13;;;;;;;17.98;7.82;;;;;;;20.02;95.61;100431.53;5079074;28;20128;-65
2021/08/15 05:12:56;;;;;;;13.15;7.57;;;;;;;20.09;93.12;100429.75;5079317;28;20043;-65
2021/08/15 05:15:40;;;;;;;12.38;7.30;;;;;;;20.18;91.95;100425.81;5094825;28;20047;-65
2021/08/15 05:18:24;;;;;;;15.02;7.43;;;;;;;20.23;92.05;100428.75;5094249;28;20127;-65
2021/08/15 05:21:08;;;;;;;7.82;6.78;;;;;;;20.28;90.91;100431.69;5094459;28;20412;-65
2021/08/15 05:23:52;;;;;;;;;;;;;;;20.32;90.29;100426.72;5094509;28;20047;-65
2021/08/15 05:26:36;;;;;;;12.23;7.40;;;;;;;20.38;89.81;100431.31;5093088;28;20430;-65
2021/08/15 05:29:20;;;;;;;10.15;7.20;;;;;;;20.46;89.89;100433.84;5093023;28;20043;-65
2021/08/15 05:32:04;;;;;;;11.25;7.32;;;;;;;20.53;89.42;100437.41;5092944;28;20054;-65
2021/08/15 05:34:48;;;;;;;12.95;6.18;;;;;;;20.61;85.78;100437.22;5093933;28;20044;-65
2021/08/15 05:37:32;;;;;;;10.77;6.57;;;;;;;20.61;84.64;100426.41;5094161;28;20112;-65
2021/08/15 05:40:16;;;;;;;11.02;6.68;;;;;;;20.68;83.15;100440.78;5093044;28;20055;-65
2021/08/15 05:43:00;;;;;;;10.38;5.80;;;;;;;20.78;83.37;100436.66;5092647;28;20054;-65
2021/08/15 05:45:44;;;;;;;;;;;;;;;20.84;82.55;100433.09;5094426;28;20047;-65
2021/08/15 05:48:28;;;;;;;11.45;6.60;;;;;;;20.90;80.42;100434.16;5078397;28;19966;-64
2021/08/15 05:51:12;;;;;;;9.30;5.85;;;;;;;21.03;79.31;100432.31;5092247;28;20626;-64
2021/08/15 05:53:56;;;;;;;13.50;5.70;;;;;;;21.12;78.40;100424.84;5092171;28;20050;-65
2021/08/15 05:56:40;;;;;;;9.85;5.85;;;;;;;21.20;78.07;100422.75;5077871;28;20426;-65
2021/08/15 05:59:24;;;;;;;8.50;5.55;;;;;;;21.22;77.47;100420.66;5092031;28;20055;-65
2021/08/15 06:02:08;;;;;;;9.85;5.32;;;;;;;21.31;76.17;100419.41;5092051;28;20051;-65
2021/08/15 06:04:51;;;;;;;7.97;5.05;;;;;;;21.30;75.16;100423.16;5091807;28;20474;-64
2021/08/15 06:07:35;;;;;;;;;;;;;;;21.30;74.79;100413.13;5092528;28;20051;-64
2021/08/15 06:10:19;;;;;;;9.17;5.33;;;;;;;21.43;74.56;100405.00;5092348;28;20279;-64
2021/08/15 06:13:03;;;;;;;11.98;5.53;;;;;;;21.49;74.21;100406.84;5091982;28;20413;-64
2021/08/15 06:15:47;;;;;;;12.40;5.90;;;;;;;21.56;74.33;100402.25;5077622;28;20127;-64
2021/08/15 06:18:31;;;;;;;;;;;;;;;21.53;72.77;100410.84;5092327;28;20055;-64
2021/08/15 06:21:15;;;;;;;8.98;4.95;;;;;;;21.56;72.42;100407.69;5092182;28;19922;-65
2021/08/15 06:23:59;;;;;;;11.23;5.47;;;;;;;21.63;72.75;100411.22;5077013;28;20050;-64
2021/08/15 06:26:43;;;;;;;13.95;5.97;;;;;;;21.69;72.24;100406.88;5092212;28;20075;-64
2021/08/15 06:29:27;;;;;;;;;;;;;;;21.74;73.00;100399.75;5092408;28;20046;-65
2021/08/15 06:32:11;;;;;;;11.67;5.30;;;;;;;21.83;72.97;100403.91;5091865;28;19942;-65
2021/08/15 06:34:55;;;;;;;9.68;5.10;;;;;;;21.90;72.79;100398.47;5077268;28;20105;-64
2021/08/15 06:37:39;;;;;;;9.88;5.50;;;;;;;21.90;71.86;100399.28;5092495;28;20083;-65
2021/08/15 06:40:24;;;;;;;;;;;;;;;21.94;71.45;100389.69;5093169;28;20463;-65
2021/08/15 06:43:09;;;;;;;9.20;5.10;;;;;;;22.01;72.15;100401.31;5091866;28;20281;-64
2021/08/15 06:45:54;;;;;;;10.40;5.63;;;;;;;22.07;72.82;100400.47;5091626;28;20515;-65
2021/08/15 06:48:39;;;;;;;10.68;5.63;;;;;;;22.13;72.90;100391.50;5091666;28;20047;-65
2021/08/15 06:51:24;;;;;;;11.07;4.95;;;;;;;22.19;72.82;100396.03;5091303;28;20477;-65
2021/08/15 06:54:07;;;;;;;9.73;5.38;;;;;;;22.33;72.15;100400.38;5092801;28;20058;-65
2021/08/15 06:56:51;;;;;;;8.57;5.22;;;;;;;22.38;71.27;100392.41;5092611;28;20050;-65
2021/08/15 06:59:35;;;;;;;9.38;5.57;;;;;;;22.40;71.43;100398.47;5091309;28;20055;-64
2021/08/15 07:02:19;;;;;;;10.52;5.57;;;;;;;22.47;69.94;100396.56;5091394;28;20051;-65
2021/08/15 07:05:08;;;;;;;10.38;4.93;;;;;;;22.47;70.22;100391.13;5092517;28;20067;-65
2021/08/15 07:07:52;;;;;;;9.30;5.32;;;;;;;22.60;70.54;100391.03;5092474;28;20047;-63
2021/08/15 07:10:36;;;;;;;10.00;5.40;;;;;;;22.73;71.30;100396.38;5092143;28;20109;-64
2021/08/15 07:13:22;;;;;;;8.68;4.85;;;;;;;22.83;69.71;100387.75;5091371;28;20047;-65
2021/08/15 07:16:06;;;;;;;8.25;5.35;;;;;;;22.89;67.83;100389.59;5092397;28;20104;-64
2021/08/15 07:18:50;;;;;;;9.75;5.30;;;;;;;22.91;66.53;100385.59;5091340;28;20051;-64
2021/08/15 07:21:34;;;;;;;;;;;;;;;22.97;68.78;100384.72;5092573;28;20484;-65
2021/08/15 07:24:18;;;;;;;10.07;5.40;;;;;;;23.04;66.42;100382.75;5091029;28;19922;-64
2021/08/15 07:27:02;;;;;;;13.48;5.47;;;;;;;23.10;65.54;100378.31;5091051;28;20071;-65
2021/08/15 07:29:46;;;;;;;13.75;5.88;;;;;;;23.14;65.14;100379.59;5090977;28;20527;-65
2021/08/15 07:32:30;;;;;;;11.93;6.35;;;;;;;23.21;64.09;100392.06;5091969;28;20054;-65
2021/08/15 07:35:14;;;;;;;11.98;5.55;;;;;;;23.30;64.18;100396.19;5091147;28;20046;-65
2021/08/15 07:37:58;;;;;;;;;;;;;;;23.35;65.21;100396.34;5093231;28;20114;-65
2021/08/15 07:40:42;;;;;;;14.52;6.22;;;;;;;23.46;65.49;100392.91;5095783;28;19957;-64
2021/08/15 07:43:26;;;;;;;;;;;;;;;23.44;65.95;100389.56;5080417;28;20109;-65
2021/08/15 07:46:13;;;;;;;13.43;5.97;;;;;;;23.55;65.76;100394.25;5094810;28;20045;-66
2021/08/15 07:48:57;;;;;;;9.38;6.28;;;;;;;23.67;66.43;100388.91;5095333;28;20047;-66
2021/08/15 07:51:41;;;;;;;12.18;6.63;;;;;;;23.73;65.90;100386.13;5094282;28;20055;-65
2021/08/15 07:54:25;;;;;;;9.88;6.97;;;;;;;23.80;65.76;100384.16;5095734;28;20055;-65
2021/08/15 07:57:09;;;;;;;13.05;6.45;;;;;;;23.87;65.67;100382.25;5095458;28;20169;-66
2021/08/15 07:59:54;;;;;;;13.70;5.68;;;;;;;23.89;65.71;100388.28;5094383;28;20085;-65
2021/08/15 08:02:38;;;;;;;13.10;6.35;;;;;;;24.10;64.59;100396.00;5095070;28;20059;-66
2021/08/15 08:05:22;;;;;;;;;;;;;;;24.16;64.43;100395.06;5095454;28;20468;-66
2021/08/15 08:08:06;;;;;;;10.15;5.50;;;;;;;24.29;64.20;100390.28;5093987;28;19923;-65
2021/08/15 08:10:53;;;;;;;7.80;5.00;;;;;;;24.40;65.50;100385.97;5095235;28;20553;-65
2021/08/15 08:13:37;;;;;;;13.07;5.32;;;;;;;24.53;63.49;100392.09;5094254;28;20071;-65
2021/08/15 08:16:21;;;;;;;;;;;;;;;24.55;61.83;100386.41;5079984;28;20062;-66
2021/08/15 08:19:05;;;;;;;14.90;5.28;;;;;;;24.65;61.55;100383.94;5095081;28;19918;-65
2021/08/15 08:21:49;;;;;;;;;;;;;;;24.62;60.50;100377.06;5094098;28;20059;-65
2021/08/15 08:24:33;;;;;;;8.70;5.72;;;;;;;24.73;60.12;100378.16;5094500;28;19923;-65
2021/08/15 08:27:18;;;;;;;11.45;5.30;;;;;;;24.86;60.26;100353.41;5094817;28;20066;-65
2021/08/15 08:30:03;;;;;;;10.55;6.30;;;;;;;24.93;59.71;100359.59;5093587;28;20146;-66
2021/08/15 08:32:47;;;;;;;13.20;5.30;;;;;;;25.09;58.73;100369.81;5093569;28;20047;-65
2021/08/15 08:35:31;;;;;;;10.43;5.35;;;;;;;25.15;59.81;100357.97;5093203;28;20051;-64
2021/08/15 08:38:15;;;;;;;;;;;;;;;25.27;59.24;100356.09;5094836;28;20055;-66
2021/08/15 08:40:59;;;;;;;10.35;5.32;;;;;;;25.39;59.99;100354.19;5093597;28;19919;-65
2021/08/15 08:43:44;;;;;;;9.70;5.53;;;;;;;25.34;57.79;100346.72;5093440;28;20098;-66
2021/08/15 08:46:28;;;;;;;10.95;5.55;;;;;;;25.46;58.98;100349.47;5094227;28;20058;-66
2021/08/15 08:49:15;;;;;;;;;;;;;;;25.45;58.35;100343.19;5094278;28;20050;-66
2021/08/15 08:52:00;;;;;;;12.20;6.47;;;;;;;25.67;57.79;100341.50;5094353;28;19968;-66
2021/08/15 08:54:44;;;;;;;10.07;5.72;;;;;;;25.76;57.74;100336.47;5092964;28;20078;-66
2021/08/15 08:57:27;;;;;;;;;;;;;;;25.92;57.07;100335.78;5093410;28;20090;-66
2021/08/15 09:00:12;;;;;;;9.25;5.72;;;;;;;26.12;56.54;100328.00;5093159;28;19990;-65
2021/08/15 09:02:57;;;;;;;11.68;5.85;;;;;;;26.37;56.68;100326.59;5078059;28;20424;-65
2021/08/15 09:05:53;;;;;;;6.95;4.93;;;;;;;26.67;53.70;100326.31;5093285;28;20050;-65
2021/08/15 09:08:37;;;;;;;9.20;5.57;;;;;;;26.91;51.52;100316.88;5092692;28;20047;-65
2021/08/15 09:11:24;;;;;;;6.97;4.85;;;;;;;27.19;50.87;100309.47;5092446;28;20054;-65
2021/08/15 09:14:13;;;;;;;8.30;5.18;;;;;;;27.41;50.89;100313.06;5093521;28;20074;-66
2021/08/15 09:17:02;;;;;;;8.20;5.35;;;;;;;27.62;49.32;100309.53;5092758;28;20097;-66
2021/08/15 09:19:47;;;;;;;11.80;5.45;;;;;;;27.80;48.96;100307.34;5092591;28;20050;-65
2021/08/15 09:22:34;;;;;;;6.57;4.82;;;;;;;27.94;48.90;100314.06;5078123;28;20046;-63
2021/08/15 09:25:20;;;;;;;10.43;5.22;;;;;;;28.24;47.70;100311.69;5092164;28;20051;-65
2021/08/15 09:28:05;;;;;;;7.68;4.88;;;;;;;28.46;48.39;100315.25;5092346;28;20047;-66
2021/08/15 09:30:48;;;;;;;7.35;5.15;;;;;;;28.53;47.89;100310.38;5093317;28;20116;-65
2021/08/15 09:33:40;;;;;;;11.13;6.47;;;;;;;28.73;47.73;100310.56;5093392;28;20518;-65
2021/08/15 09:36:41;;;;;;;11.98;5.20;;;;;;;29.17;46.01;100297.50;5093193;28;20566;-66
2021/08/15 09:39:33;;;;;;;9.88;5.40;;;;;;;29.67;45.49;100300.59;5092463;28;20093;-66
2021/08/15 09:42:17;;;;;;;8.68;4.90;;;;;;;29.75;44.11;100300.91;5077620;28;20057;-65
2021/08/15 09:45:01;;;;;;;9.90;5.35;;;;;;;29.89;43.71;100296.56;5092833;28;20093;-65
2021/08/15 09:47:45;;;;;;;;;;;;;;;30.16;43.18;100309.06;5093632;28;20074;-66
2021/08/15 09:50:28;;;;;;;9.77;4.55;;;;;;;30.66;43.39;100297.34;5092064;28;19963;-66
2021/08/15 09:53:25;;;;;;;9.38;5.15;;;;;;;30.85;41.11;100291.03;5091700;28;20088;-66
2021/08/15 09:56:09;;;;;;;9.77;5.15;;;;;;;30.93;40.67;100290.47;5077871;28;20484;-66
2021/08/15 09:59:07;;;;;;;8.52;5.40;;;;;;;31.26;41.92;100291.88;5092413;28;20431;-66
2021/08/15 10:01:53;;;;;;;6.47;5.00;;;;;;;31.76;40.54;100289.00;5092222;28;20039;-66
2021/08/15 10:04:38;;;;;;;8.32;5.38;;;;;;;32.12;39.49;100295.97;5093475;28;20042;-65
2021/08/15 10:07:24;;;;;;;7.15;5.05;;;;;;;32.37;37.03;100299.44;5093139;28;20071;-66
2021/08/15 10:10:14;;;;;;;8.65;5.28;;;;;;;33.09;36.28;100293.94;5091914;28;20047;-66
2021/08/15 10:12:58;;;;;;;12.68;5.82;;;;;;;34.41;34.13;100291.03;5077551;28;20043;-66
2021/08/15 10:15:53;;;;;;;7.80;4.75;;;;;;;35.64;31.48;100280.06;5091684;28;20131;-66
2021/08/15 10:18:39;;;;;;;7.32;4.82;;;;;;;37.27;29.31;100289.63;5091892;28;20127;-66
2021/08/15 10:21:23;;;;;;;8.02;5.10;;;;;;;37.68;27.80;100279.84;5077722;28;20066;-65
2021/08/15 10:24:10;;;;;;;9.07;5.03;;;;;;;38.24;28.43;100277.09;5091489;28;20189;-63
2021/08/15 10:26:54;;;;;;;6.38;5.13;;;;;;;39.73;26.46;100273.13;5091181;28;20531;-66
2021/08/15 10:29:41;;;;;;;7.45;5.35;;;;;;;41.04;25.20;100270.38;5091464;28;20439;-65
2021/08/15 10:32:25;;;;;;;7.25;4.80;;;;;;;42.30;22.94;100260.69;5091736;28;20135;-66
2021/08/15 10:35:09;;;;;;;8.70;5.47;;;;;;;43.61;21.55;100252.81;5092310;28;20047;-66
2021/08/15 10:37:57;;;;;;;9.90;5.15;;;;;;;43.93;20.32;100248.81;5092330;28;20047;-65
2021/08/15 10:40:41;;;;;;;6.35;5.10;;;;;;;44.53;20.12;100245.41;5092892;28;20058;-66
2021/08/15 10:43:25;;;;;;;7.80;5.68;;;;;;;44.90;20.29;100243.75;5092307;28;20063;-66
2021/08/15 10:46:17;;;;;;;8.55;5.00;;;;;;;45.53;19.46;100234.50;5092569;28;20050;-66
2021/08/15 10:49:08;;;;;;;6.65;5.45;;;;;;;46.15;18.62;100223.44;5092617;28;20051;-66
2021/08/15 10:51:52;;;;;;;8.07;5.40;;;;;;;46.47;17.94;100219.06;5092587;28;20069;-66
2021/08/15 10:54:59;;;;;;;8.98;5.65;;;;;;;46.64;17.58;100223.31;5092476;28;20082;-66
2021/08/15 10:57:49;;;;;;;7.35;5.50;;;;;;;46.88;17.58;100229.22;5092809;28;20062;-63
2021/08/15 11:00:33;;;;;;;10.70;5.50;;;;;;;46.57;17.34;100218.38;5092389;28;20047;-64
2021/08/15 11:03:19;;;;;;;5.97;5.30;;;;;;;46.99;17.58;100218.91;5092958;28;20500;-64
2021/08/15 11:06:04;;;;;;;7.15;6.00;;;;;;;47.28;16.86;100206.69;5092683;28;20054;-63
2021/08/15 11:08:48;;;;;;;10.45;9.30;;;;;;;47.61;17.08;100203.72;5092984;28;20050;-64
2021/08/15 11:11:35;;;;;;;8.98;6.35;;;;;;;48.13;16.73;100202.47;5092703;28;20538;-64
2021/08/15 11:14:23;;;;;;;11.18;8.10;;;;;;;48.24;17.06;100201.34;5096465;28;20043;-64
2021/08/15 11:17:13;;;;;;;7.78;6.03;;;;;;;48.36;16.92;100194.53;5096498;28;20047;-65
2021/08/15 11:20:30;;;;;;;7.32;5.60;;;;;;;48.19;16.17;100187.56;5096652;28;20051;-64
2021/08/15 11:23:19;;;;;;;6.40;5.60;;;;;;;48.74;16.19;100186.22;5095313;28;20094;-64
2021/08/15 11:26:11;;;;;;;6.88;6.13;;;;;;;48.50;16.52;100183.28;5095603;28;20101;-63
2021/08/15 11:28:55;;;;;;;8.05;6.13;;;;;;;48.60;16.77;100180.47;5095569;28;20405;-63
2021/08/15 11:31:39;;;;;;;7.15;6.43;;;;;;;48.58;16.11;100168.75;5095328;28;20131;-64
2021/08/15 11:34:23;;;;;;;6.97;6.05;;;;;;;48.58;16.88;100179.28;5095449;28;20059;-64
2021/08/15 11:37:07;;;;;;;7.00;6.18;;;;;;;48.59;15.83;100161.88;5095402;28;20077;-64
2021/08/15 11:39:52;;;;;;;9.13;8.30;;;;;;;48.50;16.38;100157.81;5096310;28;20408;-64
2021/08/15 11:42:36;;;;;;;8.65;6.53;;;;;;;48.57;15.89;100150.16;5095285;28;20152;-64
2021/08/15 11:45:26;;;;;;;8.10;7.30;;;;;;;48.46;15.89;100140.84;5096132;28;20404;-64
2021/08/15 11:48:17;;;;;;;10.48;7.20;;;;;;;48.29;16.69;100138.72;5095929;28;20101;-64
2021/08/15 11:51:03;;;;;;;7.30;6.70;;;;;;;48.85;16.14;100141.75;5095273;28;20132;-67
2021/08/15 11:53:47;;;;;;;7.32;6.15;;;;;;;49.44;15.73;100135.34;5095119;28;20043;-63
2021/08/15 11:56:34;;;;;;;8.57;6.82;;;;;;;49.58;15.49;100130.47;5095165;28;20100;-65
2021/08/15 11:59:18;;;;;;;8.70;7.25;;;;;;;49.54;15.94;100123.19;5095091;28;20127;-64
2021/08/15 12:02:03;;;;;;;8.95;7.22;;;;;;;49.91;15.93;100115.00;5095106;28;20205;-64
2021/08/15 12:04:49;;;;;;;8.20;6.80;;;;;;;50.23;15.51;100118.50;5095705;28;20043;-64
2021/08/15 12:07:33;;;;;;;8.90;6.95;;;;;;;50.19;15.13;100115.72;5094959;28;20109;-65
2021/08/15 12:10:26;;;;;;;7.85;7.00;;;;;;;49.89;15.70;100109.75;5094799;28;20094;-65
2021/08/15 12:13:16;;;;;;;8.48;6.90;;;;;;;49.92;15.70;100114.59;5094776;28;20109;-64
2021/08/15 12:16:00;;;;;;;9.25;8.25;;;;;;;50.16;15.68;100112.91;5095750;28;20093;-65
2021/08/15 12:18:47;;;;;;;9.77;6.88;;;;;;;49.75;15.35;100111.81;5094737;28;20051;-65
2021/08/15 12:21:34;;;;;;;7.72;6.63;;;;;;;49.91;15.26;100103.66;5095395;28;20131;-65
2021/08/15 12:24:19;;;;;;;8.02;6.65;;;;;;;49.51;15.87;100100.53;5094588;28;20093;-65
2021/08/15 12:27:05;;;;;;;7.18;6.45;;;;;;;49.45;15.90;100102.13;5095588;28;20534;-65
2021/08/15 12:29:54;;;;;;;11.20;6.43;;;;;;;49.25;15.84;100103.75;5095270;28;20125;-65
2021/08/15 12:32:38;;;;;;;9.88;6.82;;;;;;;49.26;16.21;100111.03;5095440;28;20100;-65
2021/08/15 12:35:26;;;;;;;7.28;6.30;;;;;;;49.08;15.83;100098.94;5094993;28;20039;-65
2021/08/15 12:38:28;;;;;;;7.60;6.85;;;;;;;49.12;16.27;100097.72;5094041;28;20131;-65
2021/08/15 12:41:47;;;;;;;8.30;6.35;;;;;;;49.04;15.99;100095.25;5095559;28;20054;-65
2021/08/15 12:44:44;;;;;;;8.07;6.05;;;;;;;48.86;16.38;100103.75;5079710;28;20404;-65